sensor_id;sensor_type;location;lat;lon;timestamp;pressure;altitude;pressure_sealevel;temperature;humidity
38197;BME280;26543;51.976;4.616;2023-05-29T00:01:01;52563.34;;;-140.72;100.00
38197;BME280;26543;51.976;4.616;2023-05-29T00:03:27;52589.72;;;-140.72;100.00
38197;BME280;26543;51.976;4.616;2023-05-29T00:05:52;52589.72;;;-140.72;100.00
38197;BME280;26543;51.976;4.616;2023-05-29T00:08:17;52601.91;;;-140.72;100.00
38197;BME280;26543;51.976;4.616;2023-05-29T00:10:42;52577.53;;;-140.72;100.00
38197;BME280;26543;51.976;4.616;2023-05-29T00:13:08;52601.91;;;-140.72;100.00
38197;BME280;26543;51.976;4.616;2023-05-29T00:15:33;52561.31;;;-140.72;100.00
38197;BME280;26543;51.976;4.616;2023-05-29T00:17:58;52591.75;;;-140.72;100.00
38197;BME280;26543;51.976;4.616;2023-05-29T00:20:23;52561.31;;;-140.72;100.00
38197;BME280;26543;51.976;4.616;2023-05-29T00:22:49;52595.81;;;-140.72;100.00
38197;BME280;26543;51.976;4.616;2023-05-29T00:25:14;52595.81;;;-140.72;100.00
38197;BME280;26543;51.976;4.616;2023-05-29T00:30:09;52589.72;;;-140.72;100.00
38197;BME280;26543;51.976;4.616;2023-05-29T00:32:36;52575.50;;;-140.72;100.00
38197;BME280;26543;51.976;4.616;2023-05-29T00:35:01;52541.03;;;-140.72;100.00
38197;BME280;26543;51.976;4.616;2023-05-29T00:37:27;52577.53;;;-140.72;100.00
38197;BME280;26543;51.976;4.616;2023-05-29T00:39:53;52567.41;;;-140.72;100.00
38197;BME280;26543;51.976;4.616;2023-05-29T00:42:18;52599.88;;;-140.72;100.00
38197;BME280;26543;51.976;4.616;2023-05-29T00:44:43;52585.66;;;-140.72;100.00
38197;BME280;26543;51.976;4.616;2023-05-29T00:47:08;52591.75;;;-140.72;100.00
38197;BME280;26543;51.976;4.616;2023-05-29T00:49:35;52595.81;;;-140.72;100.00
38197;BME280;26543;51.976;4.616;2023-05-29T00:52:01;52577.53;;;-140.72;100.00
38197;BME280;26543;51.976;4.616;2023-05-29T00:54:27;52591.75;;;-140.72;100.00
38197;BME280;26543;51.976;4.616;2023-05-29T00:56:53;52565.38;;;-140.72;100.00
38197;BME280;26543;51.976;4.616;2023-05-29T00:59:19;52581.59;;;-140.72;100.00
38197;BME280;26543;51.976;4.616;2023-05-29T01:01:46;52577.53;;;-140.72;100.00
38197;BME280;26543;51.976;4.616;2023-05-29T01:04:12;52565.38;;;-140.72;100.00
38197;BME280;26543;51.976;4.616;2023-05-29T01:06:40;52583.63;;;-140.72;100.00
38197;BME280;26543;51.976;4.616;2023-05-29T01:09:06;52553.19;;;-140.72;100.00
38197;BME280;26543;51.976;4.616;2023-05-29T01:11:36;52603.94;;;-140.72;100.00
38197;BME280;26543;51.976;4.616;2023-05-29T01:14:07;52593.78;;;-140.72;100.00
38197;BME280;26543;51.976;4.616;2023-05-29T01:16:38;52545.06;;;-140.72;100.00
38197;BME280;26543;51.976;4.616;2023-05-29T01:19:10;52563.34;;;-140.72;100.00
38197;BME280;26543;51.976;4.616;2023-05-29T01:21:42;52561.31;;;-140.72;100.00
38197;BME280;26543;51.976;4.616;2023-05-29T01:24:18;52614.06;;;-140.72;100.00
38197;BME280;26543;51.976;4.616;2023-05-29T01:26:51;52603.94;;;-140.72;100.00
38197;BME280;26543;51.976;4.616;2023-05-29T01:29:18;52605.94;;;-140.72;100.00
38197;BME280;26543;51.976;4.616;2023-05-29T01:31:44;52603.94;;;-140.72;100.00
38197;BME280;26543;51.976;4.616;2023-05-29T01:34:10;52601.91;;;-140.72;100.00
38197;BME280;26543;51.976;4.616;2023-05-29T01:36:36;52614.06;;;-140.72;100.00
38197;BME280;26543;51.976;4.616;2023-05-29T01:39:02;52626.25;;;-140.72;100.00
38197;BME280;26543;51.976;4.616;2023-05-29T01:41:27;52577.53;;;-140.72;100.00
38197;BME280;26543;51.976;4.616;2023-05-29T01:43:53;52599.88;;;-140.72;100.00
38197;BME280;26543;51.976;4.616;2023-05-29T01:46:20;52626.25;;;-140.72;100.00
38197;BME280;26543;51.976;4.616;2023-05-29T01:48:47;52577.53;;;-140.72;100.00
38197;BME280;26543;51.976;4.616;2023-05-29T01:51:12;52585.66;;;-140.72;100.00
38197;BME280;26543;51.976;4.616;2023-05-29T01:53:41;52616.09;;;-140.72;100.00
38197;BME280;26543;51.976;4.616;2023-05-29T01:56:07;52612.03;;;-140.72;100.00
38197;BME280;26543;51.976;4.616;2023-05-29T01:58:32;52614.06;;;-140.72;100.00
38197;BME280;26543;51.976;4.616;2023-05-29T02:00:59;52638.41;;;-140.72;100.00
38197;BME280;26543;51.976;4.616;2023-05-29T02:03:25;52610.00;;;-140.72;100.00
38197;BME280;26543;51.976;4.616;2023-05-29T02:05:53;52622.19;;;-140.72;100.00
38197;BME280;26543;51.976;4.616;2023-05-29T02:08:19;52654.66;;;-140.72;100.00
38197;BME280;26543;51.976;4.616;2023-05-29T02:10:44;52605.94;;;-140.72;100.00
38197;BME280;26543;51.976;4.616;2023-05-29T02:13:14;52652.63;;;-140.72;100.00
38197;BME280;26543;51.976;4.616;2023-05-29T02:15:40;52626.25;;;-140.72;100.00
38197;BME280;26543;51.976;4.616;2023-05-29T02:18:07;52610.00;;;-140.72;100.00
38197;BME280;26543;51.976;4.616;2023-05-29T02:20:38;52589.72;;;-140.72;100.00
38197;BME280;26543;51.976;4.616;2023-05-29T02:23:03;52622.19;;;-140.72;100.00
38197;BME280;26543;51.976;4.616;2023-05-29T02:25:28;52603.94;;;-140.72;100.00
38197;BME280;26543;51.976;4.616;2023-05-29T02:27:53;52610.00;;;-140.72;100.00
38197;BME280;26543;51.976;4.616;2023-05-29T02:30:19;52587.69;;;-140.72;100.00
38197;BME280;26543;51.976;4.616;2023-05-29T02:32:44;52642.47;;;-140.72;100.00
38197;BME280;26543;51.976;4.616;2023-05-29T02:35:09;52585.66;;;-140.72;100.00
38197;BME280;26543;51.976;4.616;2023-05-29T02:37:35;52618.13;;;-140.72;100.00
38197;BME280;26543;51.976;4.616;2023-05-29T02:40:00;52599.88;;;-140.72;100.00
38197;BME280;26543;51.976;4.616;2023-05-29T02:42:25;52630.31;;;-140.72;100.00
38197;BME280;26543;51.976;4.616;2023-05-29T02:44:50;52622.19;;;-140.72;100.00
38197;BME280;26543;51.976;4.616;2023-05-29T02:47:15;52591.75;;;-140.72;100.00
38197;BME280;26543;51.976;4.616;2023-05-29T02:49:41;52577.53;;;-140.72;100.00
38197;BME280;26543;51.976;4.616;2023-05-29T02:52:06;52620.16;;;-140.72;100.00
38197;BME280;26543;51.976;4.616;2023-05-29T02:54:31;52587.69;;;-140.72;100.00
38197;BME280;26543;51.976;4.616;2023-05-29T02:56:57;52622.19;;;-140.72;100.00
38197;BME280;26543;51.976;4.616;2023-05-29T02:59:22;52644.50;;;-140.72;100.00
38197;BME280;26543;51.976;4.616;2023-05-29T03:01:47;52610.00;;;-140.72;100.00
38197;BME280;26543;51.976;4.616;2023-05-29T03:06:42;52589.72;;;-140.72;100.00
38197;BME280;26543;51.976;4.616;2023-05-29T03:09:07;52618.13;;;-140.72;100.00
38197;BME280;26543;51.976;4.616;2023-05-29T03:11:33;52622.19;;;-140.72;100.00
38197;BME280;26543;51.976;4.616;2023-05-29T03:14:00;52622.19;;;-140.72;100.00
38197;BME280;26543;51.976;4.616;2023-05-29T03:16:25;52597.84;;;-140.72;100.00
38197;BME280;26543;51.976;4.616;2023-05-29T03:18:54;52601.91;;;-140.72;100.00
38197;BME280;26543;51.976;4.616;2023-05-29T03:21:20;52589.72;;;-140.72;100.00
38197;BME280;26543;51.976;4.616;2023-05-29T03:23:46;52612.03;;;-140.72;100.00
38197;BME280;26543;51.976;4.616;2023-05-29T03:26:11;52593.78;;;-140.72;100.00
38197;BME280;26543;51.976;4.616;2023-05-29T03:28:37;52638.41;;;-140.72;100.00
38197;BME280;26543;51.976;4.616;2023-05-29T03:31:02;52624.22;;;-140.72;100.00
38197;BME280;26543;51.976;4.616;2023-05-29T03:33:27;52610.00;;;-140.72;100.00
38197;BME280;26543;51.976;4.616;2023-05-29T03:35:53;52630.31;;;-140.72;100.00
38197;BME280;26543;51.976;4.616;2023-05-29T03:38:18;52622.19;;;-140.72;100.00
38197;BME280;26543;51.976;4.616;2023-05-29T03:40:43;52622.19;;;-140.72;100.00
38197;BME280;26543;51.976;4.616;2023-05-29T03:43:08;52636.38;;;-140.72;100.00
38197;BME280;26543;51.976;4.616;2023-05-29T03:45:34;52601.91;;;-140.72;100.00
38197;BME280;26543;51.976;4.616;2023-05-29T03:47:59;52599.88;;;-140.72;100.00
38197;BME280;26543;51.976;4.616;2023-05-29T03:50:24;52620.16;;;-140.72;100.00
38197;BME280;26543;51.976;4.616;2023-05-29T03:52:50;52650.59;;;-140.72;100.00
38197;BME280;26543;51.976;4.616;2023-05-29T03:55:15;52654.66;;;-140.72;100.00
38197;BME280;26543;51.976;4.616;2023-05-29T03:57:40;52650.59;;;-140.72;100.00
38197;BME280;26543;51.976;4.616;2023-05-29T04:00:09;52614.06;;;-140.72;100.00
38197;BME280;26543;51.976;4.616;2023-05-29T04:02:36;52618.13;;;-140.72;100.00
38197;BME280;26543;51.976;4.616;2023-05-29T04:05:02;52626.25;;;-140.72;100.00
38197;BME280;26543;51.976;4.616;2023-05-29T04:07:27;52599.88;;;-140.72;100.00
38197;BME280;26543;51.976;4.616;2023-05-29T04:09:53;52624.22;;;-140.72;100.00
38197;BME280;26543;51.976;4.616;2023-05-29T04:12:18;52632.34;;;-140.72;100.00
38197;BME280;26543;51.976;4.616;2023-05-29T04:14:43;52626.25;;;-140.72;100.00
38197;BME280;26543;51.976;4.616;2023-05-29T04:17:08;52620.16;;;-140.72;100.00
38197;BME280;26543;51.976;4.616;2023-05-29T04:19:33;52620.16;;;-140.72;100.00
38197;BME280;26543;51.976;4.616;2023-05-29T04:21:59;52646.53;;;-140.72;100.00
38197;BME280;26543;51.976;4.616;2023-05-29T04:24:24;52656.69;;;-140.72;100.00
38197;BME280;26543;51.976;4.616;2023-05-29T04:26:49;52599.88;;;-140.72;100.00
38197;BME280;26543;51.976;4.616;2023-05-29T04:29:16;52624.22;;;-140.72;100.00
38197;BME280;26543;51.976;4.616;2023-05-29T04:31:42;52622.19;;;-140.72;100.00
38197;BME280;26543;51.976;4.616;2023-05-29T04:34:07;52622.19;;;-140.72;100.00
38197;BME280;26543;51.976;4.616;2023-05-29T04:36:33;52630.31;;;-140.72;100.00
38197;BME280;26543;51.976;4.616;2023-05-29T04:38:58;52628.28;;;-140.72;100.00
38197;BME280;26543;51.976;4.616;2023-05-29T04:41:24;52616.09;;;-140.72;100.00
38197;BME280;26543;51.976;4.616;2023-05-29T04:43:54;52636.38;;;-140.72;100.00
38197;BME280;26543;51.976;4.616;2023-05-29T04:46:20;52634.38;;;-140.72;100.00
38197;BME280;26543;51.976;4.616;2023-05-29T04:48:45;52622.19;;;-140.72;100.00
38197;BME280;26543;51.976;4.616;2023-05-29T04:51:11;52605.94;;;-140.72;100.00
38197;BME280;26543;51.976;4.616;2023-05-29T04:53:37;52654.66;;;-140.72;100.00
38197;BME280;26543;51.976;4.616;2023-05-29T04:56:03;52601.91;;;-140.72;100.00
38197;BME280;26543;51.976;4.616;2023-05-29T04:58:28;52599.88;;;-140.72;100.00
38197;BME280;26543;51.976;4.616;2023-05-29T05:00:53;52648.56;;;-140.72;100.00
38197;BME280;26543;51.976;4.616;2023-05-29T05:03:22;52622.19;;;-140.72;100.00
38197;BME280;26543;51.976;4.616;2023-05-29T05:05:49;52612.03;;;-140.72;100.00
38197;BME280;26543;51.976;4.616;2023-05-29T05:08:14;52650.59;;;-140.72;100.00
38197;BME280;26543;51.976;4.616;2023-05-29T05:10:40;52618.13;;;-140.72;100.00
38197;BME280;26543;51.976;4.616;2023-05-29T05:15:36;52597.84;;;-140.72;100.00
38197;BME280;26543;51.976;4.616;2023-05-29T05:18:01;52597.84;;;-140.72;100.00
38197;BME280;26543;51.976;4.616;2023-05-29T05:20:26;52581.59;;;-140.72;100.00
38197;BME280;26543;51.976;4.616;2023-05-29T05:22:51;52614.06;;;-140.72;100.00
38197;BME280;26543;51.976;4.616;2023-05-29T05:25:23;52603.94;;;-140.72;100.00
38197;BME280;26543;51.976;4.616;2023-05-29T05:27:48;52589.72;;;-140.72;100.00
38197;BME280;26543;51.976;4.616;2023-05-29T05:30:13;52620.16;;;-140.72;100.00
38197;BME280;26543;51.976;4.616;2023-05-29T05:32:39;52577.53;;;-140.72;100.00
38197;BME280;26543;51.976;4.616;2023-05-29T05:35:04;52585.66;;;-140.72;100.00
38197;BME280;26543;51.976;4.616;2023-05-29T05:37:29;52593.78;;;-140.72;100.00
38197;BME280;26543;51.976;4.616;2023-05-29T05:39:55;52607.97;;;-140.72;100.00
38197;BME280;26543;51.976;4.616;2023-05-29T05:42:22;52601.91;;;-140.72;100.00
38197;BME280;26543;51.976;4.616;2023-05-29T05:44:47;52597.84;;;-140.72;100.00
38197;BME280;26543;51.976;4.616;2023-05-29T05:47:13;52618.13;;;-140.72;100.00
38197;BME280;26543;51.976;4.616;2023-05-29T05:49:38;52534.94;;;-140.72;100.00
38197;BME280;26543;51.976;4.616;2023-05-29T05:52:03;52541.03;;;-140.72;100.00
38197;BME280;26543;51.976;4.616;2023-05-29T05:54:28;52555.22;;;-140.72;100.00
38197;BME280;26543;51.976;4.616;2023-05-29T05:56:54;52569.44;;;-140.72;100.00
38197;BME280;26543;51.976;4.616;2023-05-29T05:59:19;52573.50;;;-140.72;100.00
38197;BME280;26543;51.976;4.616;2023-05-29T06:01:44;52536.97;;;-140.72;100.00
38197;BME280;26543;51.976;4.616;2023-05-29T06:04:09;52573.50;;;-140.72;100.00
38197;BME280;26543;51.976;4.616;2023-05-29T06:06:35;52510.59;;;-140.72;100.00
38197;BME280;26543;51.976;4.616;2023-05-29T06:09:00;52577.53;;;-140.72;100.00
38197;BME280;26543;51.976;4.616;2023-05-29T06:11:25;52575.50;;;-140.72;100.00
38197;BME280;26543;51.976;4.616;2023-05-29T06:13:51;52559.28;;;-140.72;100.00
38197;BME280;26543;51.976;4.616;2023-05-29T06:16:17;52551.16;;;-140.72;100.00
38197;BME280;26543;51.976;4.616;2023-05-29T06:18:43;52583.63;;;-140.72;100.00
38197;BME280;26543;51.976;4.616;2023-05-29T06:21:09;52539.00;;;-140.72;100.00
38197;BME280;26543;51.976;4.616;2023-05-29T06:23:34;52551.16;;;-140.72;100.00
38197;BME280;26543;51.976;4.616;2023-05-29T06:26:01;52526.81;;;-140.72;100.00
38197;BME280;26543;51.976;4.616;2023-05-29T06:28:26;52520.72;;;-140.72;100.00
38197;BME280;26543;51.976;4.616;2023-05-29T06:30:51;52534.94;;;-140.72;100.00
38197;BME280;26543;51.976;4.616;2023-05-29T06:33:17;52524.78;;;-140.72;100.00
38197;BME280;26543;51.976;4.616;2023-05-29T06:35:42;52524.78;;;-140.72;100.00
38197;BME280;26543;51.976;4.616;2023-05-29T06:38:07;52518.69;;;-140.72;89.58
38197;BME280;26543;51.976;4.616;2023-05-29T06:40:32;52536.97;;;-140.72;59.84
38197;BME280;26543;51.976;4.616;2023-05-29T06:42:58;52504.50;;;-140.72;33.99
38197;BME280;26543;51.976;4.616;2023-05-29T06:45:23;52492.31;;;-140.72;15.31
38197;BME280;26543;51.976;4.616;2023-05-29T06:47:48;52500.44;;;-140.72;6.06
38197;BME280;26543;51.976;4.616;2023-05-29T06:50:13;52534.94;;;-140.72;0.00
38197;BME280;26543;51.976;4.616;2023-05-29T06:52:39;52543.03;;;-140.72;0.00
38197;BME280;26543;51.976;4.616;2023-05-29T06:55:04;52536.97;;;-140.72;0.00
38197;BME280;26543;51.976;4.616;2023-05-29T06:57:29;52490.28;;;-140.72;0.00
38197;BME280;26543;51.976;4.616;2023-05-29T06:59:55;52470.00;;;-140.72;0.00
38197;BME280;26543;51.976;4.616;2023-05-29T07:02:20;52494.34;;;-140.72;0.00
38197;BME280;26543;51.976;4.616;2023-05-29T07:04:45;52508.56;;;-140.72;0.00
38197;BME280;26543;51.976;4.616;2023-05-29T07:07:11;52498.41;;;-140.72;0.00
38197;BME280;26543;51.976;4.616;2023-05-29T07:09:36;52470.00;;;-140.72;0.00
38197;BME280;26543;51.976;4.616;2023-05-29T07:12:01;52492.31;;;-140.72;0.00
38197;BME280;26543;51.976;4.616;2023-05-29T07:14:27;52484.19;;;-140.72;0.00
38197;BME280;26543;51.976;4.616;2023-05-29T07:16:52;52423.31;;;-140.72;0.00
38197;BME280;26543;51.976;4.616;2023-05-29T07:19:17;52500.44;;;-140.72;0.00
38197;BME280;26543;51.976;4.616;2023-05-29T07:21:43;52472.03;;;-140.72;0.00
38197;BME280;26543;51.976;4.616;2023-05-29T07:24:08;52506.53;;;-140.72;0.00
38197;BME280;26543;51.976;4.616;2023-05-29T07:26:33;52476.09;;;-140.72;0.00
38197;BME280;26543;51.976;4.616;2023-05-29T07:28:58;52474.06;;;-140.72;0.00
38197;BME280;26543;51.976;4.616;2023-05-29T07:31:24;52472.03;;;-140.72;0.00
38197;BME280;26543;51.976;4.616;2023-05-29T07:33:49;52451.72;;;-140.72;0.00
38197;BME280;26543;51.976;4.616;2023-05-29T07:36:15;52482.16;;;-140.72;0.00
38197;BME280;26543;51.976;4.616;2023-05-29T07:38:41;52478.13;;;-140.72;0.00
38197;BME280;26543;51.976;4.616;2023-05-29T07:41:06;52461.88;;;-140.72;0.00
38197;BME280;26543;51.976;4.616;2023-05-29T07:43:31;52425.34;;;-140.72;0.00
38197;BME280;26543;51.976;4.616;2023-05-29T07:45:57;52427.38;;;-140.72;0.00
38197;BME280;26543;51.976;4.616;2023-05-29T07:48:22;52457.81;;;-140.72;0.00
38197;BME280;26543;51.976;4.616;2023-05-29T07:50:47;52459.84;;;-140.72;0.00
38197;BME280;26543;51.976;4.616;2023-05-29T07:53:13;52496.38;;;-140.72;0.00
38197;BME280;26543;51.976;4.616;2023-05-29T07:55:38;52480.16;;;-140.72;0.00
38197;BME280;26543;51.976;4.616;2023-05-29T07:58:03;52407.09;;;-140.72;0.00
38197;BME280;26543;51.976;4.616;2023-05-29T08:00:28;52476.09;;;-140.72;0.00
38197;BME280;26543;51.976;4.616;2023-05-29T08:02:54;52463.91;;;-140.72;0.00
38197;BME280;26543;51.976;4.616;2023-05-29T08:05:20;52476.09;;;-140.72;0.00
38197;BME280;26543;51.976;4.616;2023-05-29T08:07:45;52443.63;;;-140.72;0.00
38197;BME280;26543;51.976;4.616;2023-05-29T08:10:11;52443.63;;;-140.72;0.00
38197;BME280;26543;51.976;4.616;2023-05-29T08:12:37;52445.66;;;-140.72;0.00
38197;BME280;26543;51.976;4.616;2023-05-29T08:15:02;52437.53;;;-140.72;0.00
38197;BME280;26543;51.976;4.616;2023-05-29T08:17:28;52421.28;;;-140.72;0.00
38197;BME280;26543;51.976;4.616;2023-05-29T08:19:53;52427.38;;;-140.72;0.00
38197;BME280;26543;51.976;4.616;2023-05-29T08:22:18;52411.16;;;-140.72;0.00
38197;BME280;26543;51.976;4.616;2023-05-29T08:24:44;52451.72;;;-140.72;0.00
38197;BME280;26543;51.976;4.616;2023-05-29T08:27:09;52467.97;;;-140.72;0.00
38197;BME280;26543;51.976;4.616;2023-05-29T08:29:34;52415.22;;;-140.72;0.00
38197;BME280;26543;51.976;4.616;2023-05-29T08:32:01;52443.63;;;-140.72;0.00
38197;BME280;26543;51.976;4.616;2023-05-29T08:34:26;52411.16;;;-140.72;0.00
38197;BME280;26543;51.976;4.616;2023-05-29T08:36:51;52431.44;;;-140.72;0.00
38197;BME280;26543;51.976;4.616;2023-05-29T08:39:17;52396.94;;;-140.72;0.00
38197;BME280;26543;51.976;4.616;2023-05-29T08:44:07;52411.16;;;-140.72;0.00
38197;BME280;26543;51.976;4.616;2023-05-29T08:46:33;52386.81;;;-140.72;0.00
38197;BME280;26543;51.976;4.616;2023-05-29T08:48:58;52378.69;;;-140.72;0.00
38197;BME280;26543;51.976;4.616;2023-05-29T08:51:25;52348.25;;;-140.72;0.00
38197;BME280;26543;51.976;4.616;2023-05-29T08:53:54;52330.00;;;-140.72;0.00
38197;BME280;26543;51.976;4.616;2023-05-29T08:56:22;52358.41;;;-140.72;0.00
38197;BME280;26543;51.976;4.616;2023-05-29T08:58:47;52323.91;;;-140.72;0.00
38197;BME280;26543;51.976;4.616;2023-05-29T09:01:13;52352.31;;;-140.72;0.00
38197;BME280;26543;51.976;4.616;2023-05-29T09:03:39;52348.25;;;-140.72;0.00
38197;BME280;26543;51.976;4.616;2023-05-29T09:06:06;52356.38;;;-140.72;0.00
38197;BME280;26543;51.976;4.616;2023-05-29T09:08:32;52334.03;;;-140.72;0.00
38197;BME280;26543;51.976;4.616;2023-05-29T09:10:58;52313.75;;;-140.72;0.00
38197;BME280;26543;51.976;4.616;2023-05-29T09:13:23;52354.34;;;-140.72;0.00
38197;BME280;26543;51.976;4.616;2023-05-29T09:15:48;52301.59;;;-140.72;0.00
38197;BME280;26543;51.976;4.616;2023-05-29T09:18:16;52319.84;;;-140.72;0.00
38197;BME280;26543;51.976;4.616;2023-05-29T09:20:41;52285.34;;;-140.72;0.00
38197;BME280;26543;51.976;4.616;2023-05-29T09:23:07;52289.41;;;-140.72;0.00
38197;BME280;26543;51.976;4.616;2023-05-29T09:25:33;52327.97;;;-140.72;0.00
38197;BME280;26543;51.976;4.616;2023-05-29T09:28:03;52285.34;;;-140.72;0.00
38197;BME280;26543;51.976;4.616;2023-05-29T09:33:00;52297.53;;;-140.72;0.00
38197;BME280;26543;51.976;4.616;2023-05-29T09:35:26;52265.06;;;-140.72;0.00
38197;BME280;26543;51.976;4.616;2023-05-29T09:37:51;52232.59;;;-140.72;0.00
38197;BME280;26543;51.976;4.616;2023-05-29T09:40:17;52277.22;;;-140.72;0.00
38197;BME280;26543;51.976;4.616;2023-05-29T09:42:42;52234.63;;;-140.72;0.00
38197;BME280;26543;51.976;4.616;2023-05-29T09:45:07;52271.16;;;-140.72;0.00
38197;BME280;26543;51.976;4.616;2023-05-29T09:47:33;52210.28;;;-140.72;0.00
38197;BME280;26543;51.976;4.616;2023-05-29T09:52:49;52189.97;;;-140.72;0.00
38197;BME280;26543;51.976;4.616;2023-05-29T09:55:18;52187.97;;;-140.72;0.00
38197;BME280;26543;51.976;4.616;2023-05-29T09:57:47;52220.41;;;-140.72;0.00
38197;BME280;26543;51.976;4.616;2023-05-29T10:00:16;52139.25;;;-140.72;0.00
38197;BME280;26543;51.976;4.616;2023-05-29T10:02:42;52155.50;;;-140.72;0.00
38197;BME280;26543;51.976;4.616;2023-05-29T10:05:07;52175.78;;;-140.72;0.00
38197;BME280;26543;51.976;4.616;2023-05-29T10:07:34;52192.00;;;-140.72;0.00
38197;BME280;26543;51.976;4.616;2023-05-29T10:10:03;52200.13;;;-140.72;0.00
38197;BME280;26543;51.976;4.616;2023-05-29T10:12:31;52179.84;;;-140.72;0.00
38197;BME280;26543;51.976;4.616;2023-05-29T10:14:58;52155.50;;;-140.72;0.00
38197;BME280;26543;51.976;4.616;2023-05-29T10:17:25;52127.09;;;-140.72;0.00
38197;BME280;26543;51.976;4.616;2023-05-29T10:19:51;52155.50;;;-140.72;0.00
38197;BME280;26543;51.976;4.616;2023-05-29T10:22:18;52157.53;;;-140.72;0.00
38197;BME280;26543;51.976;4.616;2023-05-29T10:24:44;52159.56;;;-140.72;0.00
38197;BME280;26543;51.976;4.616;2023-05-29T10:27:11;52108.81;;;-140.72;0.00
38197;BME280;26543;51.976;4.616;2023-05-29T10:29:40;52135.19;;;-140.72;0.00
38197;BME280;26543;51.976;4.616;2023-05-29T10:37:04;52094.63;;;-140.72;0.00
38197;BME280;26543;51.976;4.616;2023-05-29T10:39:31;52133.16;;;-140.72;0.00
38197;BME280;26543;51.976;4.616;2023-05-29T10:41:56;52084.47;;;-140.72;0.00
38197;BME280;26543;51.976;4.616;2023-05-29T10:47:01;52078.38;;;-140.72;0.00
38197;BME280;26543;51.976;4.616;2023-05-29T10:49:26;52080.41;;;-140.72;0.00
38197;BME280;26543;51.976;4.616;2023-05-29T10:51:59;52062.16;;;-140.72;0.00
38197;BME280;26543;51.976;4.616;2023-05-29T10:54:28;52039.84;;;-140.72;0.00
38197;BME280;26543;51.976;4.616;2023-05-29T10:57:04;52029.69;;;-140.72;0.00
38197;BME280;26543;51.976;4.616;2023-05-29T10:59:36;52074.34;;;-140.72;0.00
38197;BME280;26543;51.976;4.616;2023-05-29T11:02:02;52021.56;;;-140.72;0.00
38197;BME280;26543;51.976;4.616;2023-05-29T11:04:28;52037.81;;;-140.72;0.00
38197;BME280;26543;51.976;4.616;2023-05-29T11:06:55;52047.97;;;-140.72;0.00
38197;BME280;26543;51.976;4.616;2023-05-29T11:17:28;52009.41;;;-140.72;0.00
38197;BME280;26543;51.976;4.616;2023-05-29T11:19:54;52029.69;;;-140.72;0.00
38197;BME280;26543;51.976;4.616;2023-05-29T11:22:21;52017.53;;;-140.72;0.00
38197;BME280;26543;51.976;4.616;2023-05-29T11:24:48;52041.88;;;-140.72;0.00
38197;BME280;26543;51.976;4.616;2023-05-29T11:27:14;52037.81;;;-140.72;0.00
38197;BME280;26543;51.976;4.616;2023-05-29T11:29:39;51968.81;;;-140.72;0.00
38197;BME280;26543;51.976;4.616;2023-05-29T11:32:05;51972.88;;;-140.72;0.00
38197;BME280;26543;51.976;4.616;2023-05-29T11:34:33;51944.47;;;-140.72;0.00
38197;BME280;26543;51.976;4.616;2023-05-29T11:36:59;51954.63;;;-140.72;0.00
38197;BME280;26543;51.976;4.616;2023-05-29T11:39:24;52025.63;;;-140.72;0.00
38197;BME280;26543;51.976;4.616;2023-05-29T11:41:50;51948.53;;;-140.72;0.00
38197;BME280;26543;51.976;4.616;2023-05-29T11:44:16;51972.88;;;-140.72;0.00
38197;BME280;26543;51.976;4.616;2023-05-29T11:46:41;51989.13;;;-140.72;0.00
38197;BME280;26543;51.976;4.616;2023-05-29T11:49:06;52043.91;;;-140.72;0.00
38197;BME280;26543;51.976;4.616;2023-05-29T11:51:31;51978.97;;;-140.72;0.00
38197;BME280;26543;51.976;4.616;2023-05-29T11:53:57;51932.31;;;-140.72;0.00
38197;BME280;26543;51.976;4.616;2023-05-29T11:56:32;51938.41;;;-140.72;0.00
38197;BME280;26543;51.976;4.616;2023-05-29T11:58:58;51912.03;;;-140.72;0.00
38197;BME280;26543;51.976;4.616;2023-05-29T12:01:24;51946.50;;;-140.72;0.00
38197;BME280;26543;51.976;4.616;2023-05-29T12:03:50;51942.44;;;-140.72;0.00
38197;BME280;26543;51.976;4.616;2023-05-29T12:06:16;51905.94;;;-140.72;0.00
38197;BME280;26543;51.976;4.616;2023-05-29T12:08:41;51883.63;;;-140.72;0.00
38197;BME280;26543;51.976;4.616;2023-05-29T12:11:06;51954.63;;;-140.72;0.00
38197;BME280;26543;51.976;4.616;2023-05-29T12:13:32;51907.97;;;-140.72;0.00
38197;BME280;26543;51.976;4.616;2023-05-29T12:15:58;51952.59;;;-140.72;0.00
38197;BME280;26543;51.976;4.616;2023-05-29T12:18:25;51924.19;;;-140.72;0.00
38197;BME280;26543;51.976;4.616;2023-05-29T12:20:51;51993.19;;;-140.72;0.00
38197;BME280;26543;51.976;4.616;2023-05-29T12:23:21;51972.88;;;-140.72;0.00
38197;BME280;26543;51.976;4.616;2023-05-29T12:25:47;51962.75;;;-140.72;0.00
38197;BME280;26543;51.976;4.616;2023-05-29T12:28:16;51999.25;;;-140.72;0.00
38197;BME280;26543;51.976;4.616;2023-05-29T12:30:45;51997.22;;;-140.72;0.00
38197;BME280;26543;51.976;4.616;2023-05-29T12:35:53;51972.88;;;-140.72;0.00
38197;BME280;26543;51.976;4.616;2023-05-29T12:38:18;51895.78;;;-140.72;0.00
38197;BME280;26543;51.976;4.616;2023-05-29T12:40:47;51942.44;;;-140.72;0.00
38197;BME280;26543;51.976;4.616;2023-05-29T12:43:13;51972.88;;;-140.72;0.00
38197;BME280;26543;51.976;4.616;2023-05-29T12:45:38;51928.25;;;-140.72;0.00
38197;BME280;26543;51.976;4.616;2023-05-29T12:48:04;51968.81;;;-140.72;0.00
38197;BME280;26543;51.976;4.616;2023-05-29T12:50:34;51995.19;;;-140.72;0.00
38197;BME280;26543;51.976;4.616;2023-05-29T12:53:00;51930.28;;;-140.72;0.00
38197;BME280;26543;51.976;4.616;2023-05-29T12:55:26;51962.75;;;-140.72;0.00
38197;BME280;26543;51.976;4.616;2023-05-29T12:57:52;51962.75;;;-140.72;0.00
38197;BME280;26543;51.976;4.616;2023-05-29T13:00:18;51968.81;;;-140.72;0.00
38197;BME280;26543;51.976;4.616;2023-05-29T13:02:44;51940.41;;;-140.72;0.00
38197;BME280;26543;51.976;4.616;2023-05-29T13:05:10;51976.94;;;-140.72;0.00
38197;BME280;26543;51.976;4.616;2023-05-29T13:07:35;51964.78;;;-140.72;0.00